sensor_id;sensor_type;location;lat;lon;timestamp;P1;durP1;ratioP1;P2;durP2;ratioP2
1537;SDS011;12022;52.266;10.522;2023-04-06T00:01:02;6.73;;;6.63;;
1537;SDS011;12022;52.266;10.522;2023-04-06T00:03:29;8.80;;;8.67;;
1537;SDS011;12022;52.266;10.522;2023-04-06T00:05:56;2.53;;;2.53;;
1537;SDS011;12022;52.266;10.522;2023-04-06T00:08:23;16.10;;;15.80;;
1537;SDS011;12022;52.266;10.522;2023-04-06T00:10:50;9.70;;;9.53;;
1537;SDS011;12022;52.266;10.522;2023-04-06T00:13:17;10.40;;;10.20;;
1537;SDS011;12022;52.266;10.522;2023-04-06T00:15:44;5.00;;;4.90;;
1537;SDS011;12022;52.266;10.522;2023-04-06T00:18:11;13.70;;;13.40;;
1537;SDS011;12022;52.266;10.522;2023-04-06T00:20:38;4.17;;;4.07;;
1537;SDS011;12022;52.266;10.522;2023-04-06T00:23:05;14.73;;;14.43;;
1537;SDS011;12022;52.266;10.522;2023-04-06T00:25:32;8.87;;;8.77;;
1537;SDS011;12022;52.266;10.522;2023-04-06T00:27:59;8.57;;;8.47;;
1537;SDS011;12022;52.266;10.522;2023-04-06T00:30:26;14.00;;;13.70;;
1537;SDS011;12022;52.266;10.522;2023-04-06T00:32:53;10.20;;;10.00;;
1537;SDS011;12022;52.266;10.522;2023-04-06T00:35:20;6.50;;;6.40;;
1537;SDS011;12022;52.266;10.522;2023-04-06T00:37:47;4.03;;;4.03;;
1537;SDS011;12022;52.266;10.522;2023-04-06T00:40:14;9.63;;;9.47;;
1537;SDS011;12022;52.266;10.522;2023-04-06T00:42:42;6.93;;;6.83;;
1537;SDS011;12022;52.266;10.522;2023-04-06T00:45:09;4.23;;;4.23;;
1537;SDS011;12022;52.266;10.522;2023-04-06T00:47:36;4.77;;;4.77;;
1537;SDS011;12022;52.266;10.522;2023-04-06T00:50:03;4.03;;;4.03;;
1537;SDS011;12022;52.266;10.522;2023-04-06T00:52:31;4.73;;;4.73;;
1537;SDS011;12022;52.266;10.522;2023-04-06T00:54:58;4.50;;;4.50;;
1537;SDS011;12022;52.266;10.522;2023-04-06T00:57:25;6.87;;;6.77;;
1537;SDS011;12022;52.266;10.522;2023-04-06T00:59:52;5.27;;;5.17;;
1537;SDS011;12022;52.266;10.522;2023-04-06T01:02:19;3.57;;;3.57;;
1537;SDS011;12022;52.266;10.522;2023-04-06T01:04:46;6.20;;;6.10;;
1537;SDS011;12022;52.266;10.522;2023-04-06T01:07:13;4.90;;;4.90;;
1537;SDS011;12022;52.266;10.522;2023-04-06T01:09:40;5.27;;;5.17;;
1537;SDS011;12022;52.266;10.522;2023-04-06T01:12:08;5.53;;;5.47;;
1537;SDS011;12022;52.266;10.522;2023-04-06T01:14:35;5.40;;;5.30;;
1537;SDS011;12022;52.266;10.522;2023-04-06T01:17:02;5.67;;;5.57;;
1537;SDS011;12022;52.266;10.522;2023-04-06T01:19:29;6.03;;;5.93;;
1537;SDS011;12022;52.266;10.522;2023-04-06T01:21:56;6.23;;;6.13;;
1537;SDS011;12022;52.266;10.522;2023-04-06T01:24:23;3.63;;;3.63;;
1537;SDS011;12022;52.266;10.522;2023-04-06T01:26:50;3.50;;;3.50;;
1537;SDS011;12022;52.266;10.522;2023-04-06T01:29:17;5.40;;;5.30;;
1537;SDS011;12022;52.266;10.522;2023-04-06T01:31:44;6.37;;;6.27;;
1537;SDS011;12022;52.266;10.522;2023-04-06T01:34:11;5.73;;;5.63;;
1537;SDS011;12022;52.266;10.522;2023-04-06T01:36:38;4.90;;;4.90;;
1537;SDS011;12022;52.266;10.522;2023-04-06T01:39:05;4.97;;;4.97;;
1537;SDS011;12022;52.266;10.522;2023-04-06T01:41:32;5.57;;;5.47;;
1537;SDS011;12022;52.266;10.522;2023-04-06T01:43:59;4.57;;;4.57;;
1537;SDS011;12022;52.266;10.522;2023-04-06T01:46:27;5.57;;;5.47;;
1537;SDS011;12022;52.266;10.522;2023-04-06T01:48:54;4.63;;;4.63;;
1537;SDS011;12022;52.266;10.522;2023-04-06T01:51:21;5.13;;;5.07;;
1537;SDS011;12022;52.266;10.522;2023-04-06T01:53:48;4.40;;;4.40;;
1537;SDS011;12022;52.266;10.522;2023-04-06T01:56:15;3.03;;;3.03;;
1537;SDS011;12022;52.266;10.522;2023-04-06T01:58:42;2.97;;;2.97;;
1537;SDS011;12022;52.266;10.522;2023-04-06T02:01:09;3.33;;;3.33;;
1537;SDS011;12022;52.266;10.522;2023-04-06T02:03:36;2.93;;;2.93;;
1537;SDS011;12022;52.266;10.522;2023-04-06T02:06:03;2.73;;;2.73;;
1537;SDS011;12022;52.266;10.522;2023-04-06T02:08:30;3.43;;;3.43;;
1537;SDS011;12022;52.266;10.522;2023-04-06T02:10:57;23.20;;;22.67;;
1537;SDS011;12022;52.266;10.522;2023-04-06T02:13:24;23.10;;;22.60;;
1537;SDS011;12022;52.266;10.522;2023-04-06T02:15:51;23.53;;;23.03;;
1537;SDS011;12022;52.266;10.522;2023-04-06T02:18:18;20.27;;;19.83;;
1537;SDS011;12022;52.266;10.522;2023-04-06T02:20:45;14.93;;;14.63;;
1537;SDS011;12022;52.266;10.522;2023-04-06T02:23:12;10.70;;;10.50;;
1537;SDS011;12022;52.266;10.522;2023-04-06T02:25:39;12.20;;;12.00;;
1537;SDS011;12022;52.266;10.522;2023-04-06T02:28:07;6.30;;;6.20;;
1537;SDS011;12022;52.266;10.522;2023-04-06T02:30:34;10.23;;;10.03;;
1537;SDS011;12022;52.266;10.522;2023-04-06T02:33:01;12.57;;;12.37;;
1537;SDS011;12022;52.266;10.522;2023-04-06T02:35:29;14.10;;;13.83;;
1537;SDS011;12022;52.266;10.522;2023-04-06T02:37:57;12.87;;;12.67;;
1537;SDS011;12022;52.266;10.522;2023-04-06T02:40:24;20.00;;;19.60;;
1537;SDS011;12022;52.266;10.522;2023-04-06T02:42:51;11.13;;;10.93;;
1537;SDS011;12022;52.266;10.522;2023-04-06T02:45:18;12.70;;;12.50;;
1537;SDS011;12022;52.266;10.522;2023-04-06T02:47:45;25.30;;;24.73;;
1537;SDS011;12022;52.266;10.522;2023-04-06T02:50:12;9.90;;;9.70;;
1537;SDS011;12022;52.266;10.522;2023-04-06T02:52:39;4.50;;;4.47;;
1537;SDS011;12022;52.266;10.522;2023-04-06T02:55:06;13.20;;;12.97;;
1537;SDS011;12022;52.266;10.522;2023-04-06T02:57:34;17.00;;;16.70;;
1537;SDS011;12022;52.266;10.522;2023-04-06T03:00:01;16.50;;;16.20;;
1537;SDS011;12022;52.266;10.522;2023-04-06T03:02:28;7.63;;;7.53;;
1537;SDS011;12022;52.266;10.522;2023-04-06T03:04:55;14.27;;;14.00;;
1537;SDS011;12022;52.266;10.522;2023-04-06T03:07:22;16.27;;;15.97;;
1537;SDS011;12022;52.266;10.522;2023-04-06T03:09:49;7.10;;;7.00;;
1537;SDS011;12022;52.266;10.522;2023-04-06T03:12:16;18.63;;;18.23;;
1537;SDS011;12022;52.266;10.522;2023-04-06T03:14:43;12.43;;;12.23;;
1537;SDS011;12022;52.266;10.522;2023-04-06T03:17:11;20.43;;;20.00;;
1537;SDS011;12022;52.266;10.522;2023-04-06T03:19:38;9.53;;;9.33;;
1537;SDS011;12022;52.266;10.522;2023-04-06T03:22:05;12.47;;;12.27;;
1537;SDS011;12022;52.266;10.522;2023-04-06T03:24:32;14.27;;;13.97;;
1537;SDS011;12022;52.266;10.522;2023-04-06T03:26:59;14.50;;;14.20;;
1537;SDS011;12022;52.266;10.522;2023-04-06T03:29:26;2.50;;;2.50;;
1537;SDS011;12022;52.266;10.522;2023-04-06T03:31:53;16.20;;;15.90;;
1537;SDS011;12022;52.266;10.522;2023-04-06T03:34:20;16.67;;;16.37;;
1537;SDS011;12022;52.266;10.522;2023-04-06T03:36:47;15.10;;;14.80;;
1537;SDS011;12022;52.266;10.522;2023-04-06T03:39:32;4.27;;;4.23;;
1537;SDS011;12022;52.266;10.522;2023-04-06T03:41:59;4.40;;;4.40;;
1537;SDS011;12022;52.266;10.522;2023-04-06T03:44:26;11.80;;;11.60;;
1537;SDS011;12022;52.266;10.522;2023-04-06T03:46:53;13.83;;;13.57;;
1537;SDS011;12022;52.266;10.522;2023-04-06T03:49:20;7.20;;;7.10;;
1537;SDS011;12022;52.266;10.522;2023-04-06T03:51:47;2.70;;;2.70;;
1537;SDS011;12022;52.266;10.522;2023-04-06T03:54:14;8.07;;;7.97;;
1537;SDS011;12022;52.266;10.522;2023-04-06T03:56:41;4.70;;;4.60;;
1537;SDS011;12022;52.266;10.522;2023-04-06T03:59:08;3.60;;;3.60;;
1537;SDS011;12022;52.266;10.522;2023-04-06T04:01:35;9.73;;;9.60;;
1537;SDS011;12022;52.266;10.522;2023-04-06T04:04:02;9.90;;;9.80;;
1537;SDS011;12022;52.266;10.522;2023-04-06T04:06:29;2.37;;;2.37;;
1537;SDS011;12022;52.266;10.522;2023-04-06T04:08:56;8.83;;;8.63;;
1537;SDS011;12022;52.266;10.522;2023-04-06T04:11:23;7.70;;;7.60;;
1537;SDS011;12022;52.266;10.522;2023-04-06T04:13:50;6.23;;;6.13;;
1537;SDS011;12022;52.266;10.522;2023-04-06T04:16:17;14.37;;;14.07;;
1537;SDS011;12022;52.266;10.522;2023-04-06T04:18:44;13.23;;;13.03;;
1537;SDS011;12022;52.266;10.522;2023-04-06T04:21:11;9.73;;;9.60;;
1537;SDS011;12022;52.266;10.522;2023-04-06T04:23:38;10.57;;;10.40;;
1537;SDS011;12022;52.266;10.522;2023-04-06T04:26:05;6.60;;;6.50;;
1537;SDS011;12022;52.266;10.522;2023-04-06T04:28:32;9.40;;;9.30;;
1537;SDS011;12022;52.266;10.522;2023-04-06T04:30:59;5.90;;;5.80;;
1537;SDS011;12022;52.266;10.522;2023-04-06T04:33:26;10.00;;;9.90;;
1537;SDS011;12022;52.266;10.522;2023-04-06T04:35:53;4.03;;;4.00;;
1537;SDS011;12022;52.266;10.522;2023-04-06T04:38:19;9.90;;;9.70;;
1537;SDS011;12022;52.266;10.522;2023-04-06T04:40:47;2.57;;;2.57;;
1537;SDS011;12022;52.266;10.522;2023-04-06T04:43:13;3.07;;;3.07;;
1537;SDS011;12022;52.266;10.522;2023-04-06T04:45:40;2.60;;;2.60;;
1537;SDS011;12022;52.266;10.522;2023-04-06T04:48:07;2.90;;;2.90;;
1537;SDS011;12022;52.266;10.522;2023-04-06T04:50:35;5.03;;;4.93;;
1537;SDS011;12022;52.266;10.522;2023-04-06T04:53:02;13.60;;;13.40;;
1537;SDS011;12022;52.266;10.522;2023-04-06T04:55:31;14.17;;;13.90;;
1537;SDS011;12022;52.266;10.522;2023-04-06T04:57:58;8.57;;;8.47;;
1537;SDS011;12022;52.266;10.522;2023-04-06T05:00:25;3.50;;;3.50;;
1537;SDS011;12022;52.266;10.522;2023-04-06T05:02:55;2.27;;;2.27;;
1537;SDS011;12022;52.266;10.522;2023-04-06T05:05:22;7.90;;;7.80;;
1537;SDS011;12022;52.266;10.522;2023-04-06T05:07:49;5.40;;;5.30;;
1537;SDS011;12022;52.266;10.522;2023-04-06T05:10:16;2.27;;;2.27;;
1537;SDS011;12022;52.266;10.522;2023-04-06T05:12:43;2.53;;;2.53;;
1537;SDS011;12022;52.266;10.522;2023-04-06T05:15:10;1.90;;;1.90;;
1537;SDS011;12022;52.266;10.522;2023-04-06T05:17:37;8.03;;;7.93;;
1537;SDS011;12022;52.266;10.522;2023-04-06T05:20:06;2.07;;;2.07;;
1537;SDS011;12022;52.266;10.522;2023-04-06T05:22:33;6.33;;;6.23;;
1537;SDS011;12022;52.266;10.522;2023-04-06T05:25:01;5.07;;;5.00;;
1537;SDS011;12022;52.266;10.522;2023-04-06T05:27:29;1.40;;;1.40;;
1537;SDS011;12022;52.266;10.522;2023-04-06T05:29:56;2.97;;;2.97;;
1537;SDS011;12022;52.266;10.522;2023-04-06T05:32:23;5.17;;;5.07;;
1537;SDS011;12022;52.266;10.522;2023-04-06T05:34:51;5.73;;;5.63;;
1537;SDS011;12022;52.266;10.522;2023-04-06T05:37:18;5.07;;;4.97;;
1537;SDS011;12022;52.266;10.522;2023-04-06T05:39:45;10.60;;;10.40;;
1537;SDS011;12022;52.266;10.522;2023-04-06T05:42:12;7.10;;;7.00;;
1537;SDS011;12022;52.266;10.522;2023-04-06T05:44:39;14.40;;;14.13;;
1537;SDS011;12022;52.266;10.522;2023-04-06T05:47:06;11.37;;;11.17;;
1537;SDS011;12022;52.266;10.522;2023-04-06T05:49:33;2.50;;;2.50;;
1537;SDS011;12022;52.266;10.522;2023-04-06T05:52:01;4.03;;;4.00;;
1537;SDS011;12022;52.266;10.522;2023-04-06T05:54:28;3.03;;;3.03;;
1537;SDS011;12022;52.266;10.522;2023-04-06T05:56:55;5.50;;;5.40;;
1537;SDS011;12022;52.266;10.522;2023-04-06T05:59:22;9.40;;;9.23;;
1537;SDS011;12022;52.266;10.522;2023-04-06T06:01:50;7.60;;;7.50;;
1537;SDS011;12022;52.266;10.522;2023-04-06T06:04:17;8.17;;;8.07;;
1537;SDS011;12022;52.266;10.522;2023-04-06T06:06:45;3.83;;;3.83;;
1537;SDS011;12022;52.266;10.522;2023-04-06T06:09:12;11.53;;;11.33;;
1537;SDS011;12022;52.266;10.522;2023-04-06T06:11:39;22.67;;;22.17;;
1537;SDS011;12022;52.266;10.522;2023-04-06T06:14:07;16.77;;;16.43;;
1537;SDS011;12022;52.266;10.522;2023-04-06T06:16:34;15.17;;;14.87;;
1537;SDS011;12022;52.266;10.522;2023-04-06T06:19:01;11.77;;;11.57;;
1537;SDS011;12022;52.266;10.522;2023-04-06T06:21:28;16.73;;;16.40;;
1537;SDS011;12022;52.266;10.522;2023-04-06T06:23:57;11.03;;;10.80;;
1537;SDS011;12022;52.266;10.522;2023-04-06T06:26:27;7.00;;;6.90;;
1537;SDS011;12022;52.266;10.522;2023-04-06T06:28:56;7.33;;;7.23;;
1537;SDS011;12022;52.266;10.522;2023-04-06T06:31:24;7.30;;;7.20;;
1537;SDS011;12022;52.266;10.522;2023-04-06T06:33:51;4.73;;;4.63;;
1537;SDS011;12022;52.266;10.522;2023-04-06T06:36:19;5.23;;;5.13;;
1537;SDS011;12022;52.266;10.522;2023-04-06T06:38:46;7.07;;;6.97;;
1537;SDS011;12022;52.266;10.522;2023-04-06T06:41:13;6.17;;;6.07;;
1537;SDS011;12022;52.266;10.522;2023-04-06T06:43:40;4.63;;;4.63;;
1537;SDS011;12022;52.266;10.522;2023-04-06T06:46:07;4.83;;;4.77;;
1537;SDS011;12022;52.266;10.522;2023-04-06T06:48:34;6.10;;;6.00;;
1537;SDS011;12022;52.266;10.522;2023-04-06T06:51:01;6.80;;;6.70;;
1537;SDS011;12022;52.266;10.522;2023-04-06T06:53:29;5.90;;;5.80;;
1537;SDS011;12022;52.266;10.522;2023-04-06T06:55:56;4.30;;;4.30;;
1537;SDS011;12022;52.266;10.522;2023-04-06T06:58:23;5.87;;;5.77;;
1537;SDS011;12022;52.266;10.522;2023-04-06T07:00:50;9.47;;;9.37;;
1537;SDS011;12022;52.266;10.522;2023-04-06T07:03:21;9.20;;;9.10;;
1537;SDS011;12022;52.266;10.522;2023-04-06T07:05:49;8.67;;;8.57;;
1537;SDS011;12022;52.266;10.522;2023-04-06T07:08:20;7.20;;;7.10;;
1537;SDS011;12022;52.266;10.522;2023-04-06T07:10:50;11.13;;;10.93;;
1537;SDS011;12022;52.266;10.522;2023-04-06T07:13:24;8.60;;;8.50;;
1537;SDS011;12022;52.266;10.522;2023-04-06T07:15:53;6.20;;;6.10;;
1537;SDS011;12022;52.266;10.522;2023-04-06T07:18:20;6.00;;;5.90;;
1537;SDS011;12022;52.266;10.522;2023-04-06T07:20:48;3.20;;;3.20;;
1537;SDS011;12022;52.266;10.522;2023-04-06T07:23:16;3.57;;;3.57;;
1537;SDS011;12022;52.266;10.522;2023-04-06T07:25:43;2.77;;;2.77;;
1537;SDS011;12022;52.266;10.522;2023-04-06T07:28:10;3.43;;;3.43;;
1537;SDS011;12022;52.266;10.522;2023-04-06T07:30:37;2.47;;;2.47;;
1537;SDS011;12022;52.266;10.522;2023-04-06T07:33:05;2.10;;;2.10;;
1537;SDS011;12022;52.266;10.522;2023-04-06T07:35:32;2.40;;;2.40;;
1537;SDS011;12022;52.266;10.522;2023-04-06T07:38:01;3.70;;;3.60;;
1537;SDS011;12022;52.266;10.522;2023-04-06T07:40:29;2.70;;;2.70;;
1537;SDS011;12022;52.266;10.522;2023-04-06T07:43:00;2.17;;;2.17;;
1537;SDS011;12022;52.266;10.522;2023-04-06T07:45:28;2.77;;;2.77;;
1537;SDS011;12022;52.266;10.522;2023-04-06T07:47:55;2.40;;;2.40;;
1537;SDS011;12022;52.266;10.522;2023-04-06T07:50:22;2.00;;;2.00;;
1537;SDS011;12022;52.266;10.522;2023-04-06T07:52:49;2.20;;;2.20;;
1537;SDS011;12022;52.266;10.522;2023-04-06T07:55:16;1.93;;;1.93;;
1537;SDS011;12022;52.266;10.522;2023-04-06T07:57:45;1.60;;;1.60;;
1537;SDS011;12022;52.266;10.522;2023-04-06T08:00:12;1.57;;;1.57;;
1537;SDS011;12022;52.266;10.522;2023-04-06T08:02:40;1.47;;;1.47;;
1537;SDS011;12022;52.266;10.522;2023-04-06T08:05:07;1.40;;;1.40;;
1537;SDS011;12022;52.266;10.522;2023-04-06T08:07:37;1.10;;;1.10;;
1537;SDS011;12022;52.266;10.522;2023-04-06T08:10:04;1.70;;;1.70;;
1537;SDS011;12022;52.266;10.522;2023-04-06T08:12:34;1.60;;;1.60;;
1537;SDS011;12022;52.266;10.522;2023-04-06T08:15:01;1.80;;;1.80;;
1537;SDS011;12022;52.266;10.522;2023-04-06T08:17:31;1.40;;;1.40;;
1537;SDS011;12022;52.266;10.522;2023-04-06T08:19:58;1.90;;;1.90;;
1537;SDS011;12022;52.266;10.522;2023-04-06T08:22:25;1.40;;;1.40;;
1537;SDS011;12022;52.266;10.522;2023-04-06T08:24:52;1.60;;;1.60;;
1537;SDS011;12022;52.266;10.522;2023-04-06T08:27:21;1.00;;;1.00;;
1537;SDS011;12022;52.266;10.522;2023-04-06T08:30:12;1.50;;;1.50;;
1537;SDS011;12022;52.266;10.522;2023-04-06T08:33:03;1.77;;;1.77;;
1537;SDS011;12022;52.266;10.522;2023-04-06T08:35:40;1.37;;;1.37;;
1537;SDS011;12022;52.266;10.522;2023-04-06T08:38:08;2.10;;;2.10;;
1537;SDS011;12022;52.266;10.522;2023-04-06T08:40:39;1.73;;;1.73;;
1537;SDS011;12022;52.266;10.522;2023-04-06T08:43:06;2.10;;;2.10;;
1537;SDS011;12022;52.266;10.522;2023-04-06T08:45:45;2.00;;;2.00;;
1537;SDS011;12022;52.266;10.522;2023-04-06T08:48:33;2.20;;;2.20;;
1537;SDS011;12022;52.266;10.522;2023-04-06T08:51:01;1.83;;;1.83;;
1537;SDS011;12022;52.266;10.522;2023-04-06T08:53:29;2.70;;;2.70;;
1537;SDS011;12022;52.266;10.522;2023-04-06T08:55:56;2.67;;;2.67;;
1537;SDS011;12022;52.266;10.522;2023-04-06T08:58:25;2.40;;;2.40;;
1537;SDS011;12022;52.266;10.522;2023-04-06T09:01:07;2.70;;;2.70;;
1537;SDS011;12022;52.266;10.522;2023-04-06T09:03:39;1.70;;;1.70;;
1537;SDS011;12022;52.266;10.522;2023-04-06T09:06:11;3.80;;;3.80;;
1537;SDS011;12022;52.266;10.522;2023-04-06T09:08:40;3.27;;;3.27;;
1537;SDS011;12022;52.266;10.522;2023-04-06T09:11:09;3.40;;;3.40;;
1537;SDS011;12022;52.266;10.522;2023-04-06T09:13:46;2.53;;;2.53;;
1537;SDS011;12022;52.266;10.522;2023-04-06T09:16:26;1.70;;;1.70;;
1537;SDS011;12022;52.266;10.522;2023-04-06T09:19:10;2.50;;;2.50;;
1537;SDS011;12022;52.266;10.522;2023-04-06T09:21:46;2.53;;;2.53;;
1537;SDS011;12022;52.266;10.522;2023-04-06T09:24:13;1.73;;;1.73;;
1537;SDS011;12022;52.266;10.522;2023-04-06T09:26:47;2.50;;;2.50;;
1537;SDS011;12022;52.266;10.522;2023-04-06T09:29:24;2.00;;;2.00;;
1537;SDS011;12022;52.266;10.522;2023-04-06T09:32:01;1.63;;;1.63;;
1537;SDS011;12022;52.266;10.522;2023-04-06T09:34:37;1.40;;;1.40;;
1537;SDS011;12022;52.266;10.522;2023-04-06T09:37:21;1.17;;;1.17;;
1537;SDS011;12022;52.266;10.522;2023-04-06T09:40:12;1.97;;;1.97;;
1537;SDS011;12022;52.266;10.522;2023-04-06T09:42:57;1.97;;;1.97;;
1537;SDS011;12022;52.266;10.522;2023-04-06T09:45:55;1.50;;;1.50;;
1537;SDS011;12022;52.266;10.522;2023-04-06T09:48:24;2.00;;;2.00;;
1537;SDS011;12022;52.266;10.522;2023-04-06T09:50:56;1.90;;;1.90;;
1537;SDS011;12022;52.266;10.522;2023-04-06T09:53:26;1.60;;;1.60;;
1537;SDS011;12022;52.266;10.522;2023-04-06T09:55:57;2.53;;;2.53;;
1537;SDS011;12022;52.266;10.522;2023-04-06T09:58:27;1.73;;;1.73;;
1537;SDS011;12022;52.266;10.522;2023-04-06T10:01:02;2.07;;;2.07;;
1537;SDS011;12022;52.266;10.522;2023-04-06T10:06:30;1.40;;;1.40;;
1537;SDS011;12022;52.266;10.522;2023-04-06T10:09:02;1.93;;;1.93;;
1537;SDS011;12022;52.266;10.522;2023-04-06T10:11:34;2.50;;;2.50;;
1537;SDS011;12022;52.266;10.522;2023-04-06T10:14:02;2.50;;;2.50;;
1537;SDS011;12022;52.266;10.522;2023-04-06T10:16:31;2.83;;;2.83;;
1537;SDS011;12022;52.266;10.522;2023-04-06T10:19:12;3.97;;;3.97;;
1537;SDS011;12022;52.266;10.522;2023-04-06T10:21:47;2.43;;;2.43;;
1537;SDS011;12022;52.266;10.522;2023-04-06T10:24:25;2.83;;;2.83;;
1537;SDS011;12022;52.266;10.522;2023-04-06T10:27:01;3.47;;;3.47;;
1537;SDS011;12022;52.266;10.522;2023-04-06T10:29:45;4.23;;;4.23;;
1537;SDS011;12022;52.266;10.522;2023-04-06T10:32:44;4.97;;;4.90;;
1537;SDS011;12022;52.266;10.522;2023-04-06T10:35:40;5.73;;;5.63;;
1537;SDS011;12022;52.266;10.522;2023-04-06T10:38:11;18.67;;;18.27;;
1537;SDS011;12022;52.266;10.522;2023-04-06T10:40:48;11.63;;;11.43;;
1537;SDS011;12022;52.266;10.522;2023-04-06T10:43:36;19.60;;;19.07;;
1537;SDS011;12022;52.266;10.522;2023-04-06T10:46:05;9.63;;;9.50;;
1537;SDS011;12022;52.266;10.522;2023-04-06T10:48:37;13.40;;;13.13;;
1537;SDS011;12022;52.266;10.522;2023-04-06T10:51:14;6.17;;;6.07;;
1537;SDS011;12022;52.266;10.522;2023-04-06T10:53:48;2.60;;;2.60;;
1537;SDS011;12022;52.266;10.522;2023-04-06T10:56:16;2.77;;;2.77;;
1537;SDS011;12022;52.266;10.522;2023-04-06T10:58:51;1.80;;;1.80;;
1537;SDS011;12022;52.266;10.522;2023-04-06T11:01:20;2.13;;;2.13;;
1537;SDS011;12022;52.266;10.522;2023-04-06T11:03:49;1.90;;;1.90;;
1537;SDS011;12022;52.266;10.522;2023-04-06T11:06:19;1.87;;;1.87;;
1537;SDS011;12022;52.266;10.522;2023-04-06T11:08:54;2.10;;;2.10;;
1537;SDS011;12022;52.266;10.522;2023-04-06T11:11:22;2.30;;;2.30;;
1537;SDS011;12022;52.266;10.522;2023-04-06T11:13:57;2.43;;;2.43;;
1537;SDS011;12022;52.266;10.522;2023-04-06T11:16:26;2.13;;;2.13;;
1537;SDS011;12022;52.266;10.522;2023-04-06T11:19:04;1.60;;;1.60;;
1537;SDS011;12022;52.266;10.522;2023-04-06T11:21:40;2.63;;;2.63;;
1537;SDS011;12022;52.266;10.522;2023-04-06T11:24:10;2.10;;;2.10;;
1537;SDS011;12022;52.266;10.522;2023-04-06T11:26:40;3.13;;;3.13;;
1537;SDS011;12022;52.266;10.522;2023-04-06T11:29:10;2.97;;;2.97;;
1537;SDS011;12022;52.266;10.522;2023-04-06T11:31:48;2.73;;;2.73;;
1537;SDS011;12022;52.266;10.522;2023-04-06T11:34:17;2.97;;;2.97;;
1537;SDS011;12022;52.266;10.522;2023-04-06T11:36:46;1.73;;;1.73;;
1537;SDS011;12022;52.266;10.522;2023-04-06T11:39:19;3.33;;;3.27;;
1537;SDS011;12022;52.266;10.522;2023-04-06T11:41:50;2.70;;;2.70;;
1537;SDS011;12022;52.266;10.522;2023-04-06T11:44:40;2.90;;;2.90;;
1537;SDS011;12022;52.266;10.522;2023-04-06T11:47:12;2.70;;;2.70;;
1537;SDS011;12022;52.266;10.522;2023-04-06T11:49:40;2.70;;;2.70;;
1537;SDS011;12022;52.266;10.522;2023-04-06T11:52:19;3.53;;;3.50;;
1537;SDS011;12022;52.266;10.522;2023-04-06T11:54:50;4.10;;;4.10;;
1537;SDS011;12022;52.266;10.522;2023-04-06T11:57:19;4.13;;;4.13;;
1537;SDS011;12022;52.266;10.522;2023-04-06T11:59:50;5.30;;;5.20;;
1537;SDS011;12022;52.266;10.522;2023-04-06T12:02:18;3.20;;;3.20;;
1537;SDS011;12022;52.266;10.522;2023-04-06T12:04:45;3.07;;;3.07;;
1537;SDS011;12022;52.266;10.522;2023-04-06T12:07:12;3.77;;;3.77;;
1537;SDS011;12022;52.266;10.522;2023-04-06T12:09:39;3.10;;;3.10;;
1537;SDS011;12022;52.266;10.522;2023-04-06T12:12:08;3.20;;;3.20;;
1537;SDS011;12022;52.266;10.522;2023-04-06T12:14:35;2.37;;;2.37;;
1537;SDS011;12022;52.266;10.522;2023-04-06T12:17:02;2.27;;;2.27;;
1537;SDS011;12022;52.266;10.522;2023-04-06T12:19:29;2.50;;;2.50;;
1537;SDS011;12022;52.266;10.522;2023-04-06T12:21:58;5.63;;;5.53;;
1537;SDS011;12022;52.266;10.522;2023-04-06T12:24:26;2.63;;;2.63;;
1537;SDS011;12022;52.266;10.522;2023-04-06T12:26:55;2.90;;;2.90;;
1537;SDS011;12022;52.266;10.522;2023-04-06T12:29:35;1.97;;;1.97;;
1537;SDS011;12022;52.266;10.522;2023-04-06T12:32:02;3.50;;;3.50;;
1537;SDS011;12022;52.266;10.522;2023-04-06T12:34:30;2.20;;;2.20;;
1537;SDS011;12022;52.266;10.522;2023-04-06T12:36:57;2.37;;;2.37;;
1537;SDS011;12022;52.266;10.522;2023-04-06T12:39:24;3.43;;;3.43;;
1537;SDS011;12022;52.266;10.522;2023-04-06T12:41:52;3.50;;;3.50;;
1537;SDS011;12022;52.266;10.522;2023-04-06T12:44:19;4.30;;;4.30;;
1537;SDS011;12022;52.266;10.522;2023-04-06T12:46:46;3.20;;;3.20;;
1537;SDS011;12022;52.266;10.522;2023-04-06T12:49:13;2.70;;;2.70;;
1537;SDS011;12022;52.266;10.522;2023-04-06T12:51:43;3.87;;;3.87;;
1537;SDS011;12022;52.266;10.522;2023-04-06T12:54:10;4.63;;;4.63;;
1537;SDS011;12022;52.266;10.522;2023-04-06T12:56:38;3.13;;;3.13;;
1537;SDS011;12022;52.266;10.522;2023-04-06T12:59:05;2.47;;;2.47;;
1537;SDS011;12022;52.266;10.522;2023-04-06T13:01:32;3.40;;;3.40;;
1537;SDS011;12022;52.266;10.522;2023-04-06T13:03:59;3.20;;;3.20;;
1537;SDS011;12022;52.266;10.522;2023-04-06T13:06:26;2.87;;;2.87;;
1537;SDS011;12022;52.266;10.522;2023-04-06T13:08:54;3.63;;;3.63;;
1537;SDS011;12022;52.266;10.522;2023-04-06T13:11:21;3.10;;;3.10;;
1537;SDS011;12022;52.266;10.522;2023-04-06T13:13:52;4.20;;;4.20;;
1537;SDS011;12022;52.266;10.522;2023-04-06T13:16:19;3.07;;;3.07;;
1537;SDS011;12022;52.266;10.522;2023-04-06T13:18:46;3.10;;;3.10;;
1537;SDS011;12022;52.266;10.522;2023-04-06T13:21:14;2.13;;;2.13;;
1537;SDS011;12022;52.266;10.522;2023-04-06T13:23:42;3.90;;;3.90;;
1537;SDS011;12022;52.266;10.522;2023-04-06T13:26:10;2.67;;;2.67;;
1537;SDS011;12022;52.266;10.522;2023-04-06T13:28:37;4.37;;;4.37;;
1537;SDS011;12022;52.266;10.522;2023-04-06T13:31:05;2.73;;;2.73;;
1537;SDS011;12022;52.266;10.522;2023-04-06T13:33:32;3.30;;;3.30;;
1537;SDS011;12022;52.266;10.522;2023-04-06T13:36:00;2.90;;;2.90;;
1537;SDS011;12022;52.266;10.522;2023-04-06T13:38:28;2.97;;;2.97;;
1537;SDS011;12022;52.266;10.522;2023-04-06T13:40:56;3.07;;;3.07;;
1537;SDS011;12022;52.266;10.522;2023-04-06T13:43:23;3.43;;;3.43;;
1537;SDS011;12022;52.266;10.522;2023-04-06T13:45:53;3.43;;;3.43;;
1537;SDS011;12022;52.266;10.522;2023-04-06T13:48:21;2.60;;;2.60;;
1537;SDS011;12022;52.266;10.522;2023-04-06T13:50:49;2.40;;;2.40;;
1537;SDS011;12022;52.266;10.522;2023-04-06T13:53:16;2.47;;;2.47;;
1537;SDS011;12022;52.266;10.522;2023-04-06T13:55:43;3.47;;;3.47;;
1537;SDS011;12022;52.266;10.522;2023-04-06T13:58:18;2.67;;;2.67;;
1537;SDS011;12022;52.266;10.522;2023-04-06T14:00:45;3.50;;;3.50;;
1537;SDS011;12022;52.266;10.522;2023-04-06T14:03:12;4.37;;;4.37;;
1537;SDS011;12022;52.266;10.522;2023-04-06T14:05:40;2.40;;;2.40;;
1537;SDS011;12022;52.266;10.522;2023-04-06T14:08:06;2.03;;;2.03;;
1537;SDS011;12022;52.266;10.522;2023-04-06T14:10:40;2.50;;;2.50;;
1537;SDS011;12022;52.266;10.522;2023-04-06T14:13:08;3.20;;;3.20;;
1537;SDS011;12022;52.266;10.522;2023-04-06T14:15:35;3.20;;;3.20;;
1537;SDS011;12022;52.266;10.522;2023-04-06T14:18:02;9.80;;;9.60;;
1537;SDS011;12022;52.266;10.522;2023-04-06T14:20:32;2.47;;;2.47;;
1537;SDS011;12022;52.266;10.522;2023-04-06T14:23:00;2.03;;;2.03;;
1537;SDS011;12022;52.266;10.522;2023-04-06T14:25:28;2.90;;;2.90;;
1537;SDS011;12022;52.266;10.522;2023-04-06T14:27:57;2.50;;;2.50;;
1537;SDS011;12022;52.266;10.522;2023-04-06T14:30:24;2.33;;;2.33;;
1537;SDS011;12022;52.266;10.522;2023-04-06T14:32:51;3.40;;;3.40;;
1537;SDS011;12022;52.266;10.522;2023-04-06T14:35:18;3.43;;;3.43;;
1537;SDS011;12022;52.266;10.522;2023-04-06T14:37:45;3.40;;;3.40;;
1537;SDS011;12022;52.266;10.522;2023-04-06T14:40:13;2.87;;;2.87;;
1537;SDS011;12022;52.266;10.522;2023-04-06T14:42:40;2.20;;;2.20;;
1537;SDS011;12022;52.266;10.522;2023-04-06T14:45:07;3.40;;;3.40;;
1537;SDS011;12022;52.266;10.522;2023-04-06T14:47:34;2.97;;;2.97;;
1537;SDS011;12022;52.266;10.522;2023-04-06T14:50:01;2.33;;;2.33;;
1537;SDS011;12022;52.266;10.522;2023-04-06T14:52:28;2.20;;;2.20;;
1537;SDS011;12022;52.266;10.522;2023-04-06T14:54:58;2.40;;;2.40;;
1537;SDS011;12022;52.266;10.522;2023-04-06T14:57:25;6.70;;;6.60;;